Terminal Aerodrome Forecast
Issued by NWS

Home | Current Version | Previous Version | Text Only | Print | Product List | Glossary On
Versions: 1 2 3 4 5 6 7 8 9 10 11 12 13
000
FTUS42 KTBW 311133
TAFPGD
TAF
KPGD 311133Z 3112/0112 16009KT P6SM VCSH SCT020 OVC040
     FM311500 18013G18KT P6SM VCSH BKN020 OVC060
     FM311800 20011G18KT 6SM RA VCTS SCT020CB OVC050
     FM010100 16011KT P6SM -RA FEW010 OVC020
     FM010500 15009KT P6SM SCT010 BKN020 OVC060=

USA.gov is the U.S. government's official web portal to all federal, state and local government web resources and services.